sensor_id;sensor_type;location;lat;lon;timestamp;temperature;humidity
18101;DHT22;9177;49.156;8.142;2023-04-03T00:02:04;19.70;93.70
18101;DHT22;9177;49.156;8.142;2023-04-03T00:04:31;19.70;93.80
18101;DHT22;9177;49.156;8.142;2023-04-03T00:06:58;19.70;93.40
18101;DHT22;9177;49.156;8.142;2023-04-03T00:09:27;19.70;93.80
18101;DHT22;9177;49.156;8.142;2023-04-03T00:11:53;19.70;93.80
18101;DHT22;9177;49.156;8.142;2023-04-03T00:14:20;19.70;93.70
18101;DHT22;9177;49.156;8.142;2023-04-03T00:16:47;19.70;93.70
18101;DHT22;9177;49.156;8.142;2023-04-03T00:19:14;19.70;93.60
18101;DHT22;9177;49.156;8.142;2023-04-03T00:21:41;19.70;93.70
18101;DHT22;9177;49.156;8.142;2023-04-03T00:24:08;19.70;93.70
18101;DHT22;9177;49.156;8.142;2023-04-03T00:26:36;19.70;93.50
18101;DHT22;9177;49.156;8.142;2023-04-03T00:29:03;19.70;93.50
18101;DHT22;9177;49.156;8.142;2023-04-03T00:31:30;19.60;93.50
18101;DHT22;9177;49.156;8.142;2023-04-03T00:33:56;19.60;93.50
18101;DHT22;9177;49.156;8.142;2023-04-03T00:36:24;19.60;93.50
18101;DHT22;9177;49.156;8.142;2023-04-03T00:38:52;19.60;93.50
18101;DHT22;9177;49.156;8.142;2023-04-03T00:41:18;19.60;93.40
18101;DHT22;9177;49.156;8.142;2023-04-03T00:43:47;19.60;93.40
18101;DHT22;9177;49.156;8.142;2023-04-03T00:46:13;19.60;93.40
18101;DHT22;9177;49.156;8.142;2023-04-03T00:48:42;19.60;93.40
18101;DHT22;9177;49.156;8.142;2023-04-03T00:51:12;19.60;93.30
18101;DHT22;9177;49.156;8.142;2023-04-03T00:53:43;19.60;93.30
18101;DHT22;9177;49.156;8.142;2023-04-03T00:56:13;19.60;93.20
18101;DHT22;9177;49.156;8.142;2023-04-03T00:58:45;19.60;93.20
18101;DHT22;9177;49.156;8.142;2023-04-03T01:01:20;19.60;93.20
18101;DHT22;9177;49.156;8.142;2023-04-03T01:03:48;19.60;93.20
18101;DHT22;9177;49.156;8.142;2023-04-03T01:06:17;19.60;93.10
18101;DHT22;9177;49.156;8.142;2023-04-03T01:08:44;19.60;93.10
18101;DHT22;9177;49.156;8.142;2023-04-03T01:11:12;19.60;93.10
18101;DHT22;9177;49.156;8.142;2023-04-03T01:13:39;19.60;92.70
18101;DHT22;9177;49.156;8.142;2023-04-03T01:16:06;19.60;93.00
18101;DHT22;9177;49.156;8.142;2023-04-03T01:18:37;19.60;92.80
18101;DHT22;9177;49.156;8.142;2023-04-03T01:21:39;19.60;92.90
18101;DHT22;9177;49.156;8.142;2023-04-03T01:24:20;19.60;92.90
18101;DHT22;9177;49.156;8.142;2023-04-03T01:26:48;19.60;92.90
18101;DHT22;9177;49.156;8.142;2023-04-03T01:29:16;19.60;92.70
18101;DHT22;9177;49.156;8.142;2023-04-03T01:31:52;19.60;92.80
18101;DHT22;9177;49.156;8.142;2023-04-03T01:34:19;19.60;92.70
18101;DHT22;9177;49.156;8.142;2023-04-03T01:36:47;19.60;92.70
18101;DHT22;9177;49.156;8.142;2023-04-03T01:39:14;19.60;92.70
18101;DHT22;9177;49.156;8.142;2023-04-03T01:41:42;19.50;92.60
18101;DHT22;9177;49.156;8.142;2023-04-03T01:44:10;19.60;92.70
18101;DHT22;9177;49.156;8.142;2023-04-03T01:46:37;19.50;92.70
18101;DHT22;9177;49.156;8.142;2023-04-03T01:49:05;19.50;92.60
18101;DHT22;9177;49.156;8.142;2023-04-03T01:51:32;19.50;92.50
18101;DHT22;9177;49.156;8.142;2023-04-03T01:53:59;19.50;92.50
18101;DHT22;9177;49.156;8.142;2023-04-03T01:56:26;19.50;92.50
18101;DHT22;9177;49.156;8.142;2023-04-03T01:58:53;19.50;92.50
18101;DHT22;9177;49.156;8.142;2023-04-03T02:01:20;19.50;92.50
18101;DHT22;9177;49.156;8.142;2023-04-03T02:03:47;19.50;92.50
18101;DHT22;9177;49.156;8.142;2023-04-03T02:06:15;19.50;92.40
18101;DHT22;9177;49.156;8.142;2023-04-03T02:08:42;19.50;92.40
18101;DHT22;9177;49.156;8.142;2023-04-03T02:11:08;19.50;92.30
18101;DHT22;9177;49.156;8.142;2023-04-03T02:13:35;19.50;92.30
18101;DHT22;9177;49.156;8.142;2023-04-03T02:16:07;19.50;92.30
18101;DHT22;9177;49.156;8.142;2023-04-03T02:18:34;19.50;92.30
18101;DHT22;9177;49.156;8.142;2023-04-03T02:21:00;19.50;92.20
18101;DHT22;9177;49.156;8.142;2023-04-03T02:23:29;19.50;92.20
18101;DHT22;9177;49.156;8.142;2023-04-03T02:26:04;19.50;92.10
18101;DHT22;9177;49.156;8.142;2023-04-03T02:28:31;19.50;92.10
18101;DHT22;9177;49.156;8.142;2023-04-03T02:30:58;19.50;92.10
18101;DHT22;9177;49.156;8.142;2023-04-03T02:33:25;19.50;92.10
18101;DHT22;9177;49.156;8.142;2023-04-03T02:35:53;19.50;92.00
18101;DHT22;9177;49.156;8.142;2023-04-03T02:38:20;19.50;92.00
18101;DHT22;9177;49.156;8.142;2023-04-03T02:40:48;19.50;92.00
18101;DHT22;9177;49.156;8.142;2023-04-03T02:43:16;19.50;91.90
18101;DHT22;9177;49.156;8.142;2023-04-03T02:45:43;19.50;91.90
18101;DHT22;9177;49.156;8.142;2023-04-03T02:48:10;19.50;91.90
18101;DHT22;9177;49.156;8.142;2023-04-03T02:50:37;19.50;91.80
18101;DHT22;9177;49.156;8.142;2023-04-03T02:53:04;19.50;91.80
18101;DHT22;9177;49.156;8.142;2023-04-03T02:55:31;19.50;91.80
18101;DHT22;9177;49.156;8.142;2023-04-03T02:57:59;19.50;91.80
18101;DHT22;9177;49.156;8.142;2023-04-03T03:00:26;19.50;91.80
18101;DHT22;9177;49.156;8.142;2023-04-03T03:02:53;19.50;91.80
18101;DHT22;9177;49.156;8.142;2023-04-03T03:05:19;19.50;91.80
18101;DHT22;9177;49.156;8.142;2023-04-03T03:07:47;19.50;91.70
18101;DHT22;9177;49.156;8.142;2023-04-03T03:10:14;19.50;91.70
18101;DHT22;9177;49.156;8.142;2023-04-03T03:12:44;19.50;91.70
18101;DHT22;9177;49.156;8.142;2023-04-03T03:15:12;19.50;91.70
18101;DHT22;9177;49.156;8.142;2023-04-03T03:17:40;19.50;91.70
18101;DHT22;9177;49.156;8.142;2023-04-03T03:20:08;19.50;91.60
18101;DHT22;9177;49.156;8.142;2023-04-03T03:22:37;19.50;91.60
18101;DHT22;9177;49.156;8.142;2023-04-03T03:25:04;19.50;91.60
18101;DHT22;9177;49.156;8.142;2023-04-03T03:27:31;19.50;91.60
18101;DHT22;9177;49.156;8.142;2023-04-03T03:29:58;19.50;91.50
18101;DHT22;9177;49.156;8.142;2023-04-03T03:32:26;19.50;91.50
18101;DHT22;9177;49.156;8.142;2023-04-03T03:34:53;19.50;91.50
18101;DHT22;9177;49.156;8.142;2023-04-03T03:37:20;19.50;91.50
18101;DHT22;9177;49.156;8.142;2023-04-03T03:39:47;19.50;91.50
18101;DHT22;9177;49.156;8.142;2023-04-03T03:42:14;19.50;91.50
18101;DHT22;9177;49.156;8.142;2023-04-03T03:44:41;19.50;91.40
18101;DHT22;9177;49.156;8.142;2023-04-03T03:47:08;19.50;91.50
18101;DHT22;9177;49.156;8.142;2023-04-03T03:49:37;19.50;91.50
18101;DHT22;9177;49.156;8.142;2023-04-03T03:52:04;19.50;91.40
18101;DHT22;9177;49.156;8.142;2023-04-03T03:54:31;19.50;91.40
18101;DHT22;9177;49.156;8.142;2023-04-03T03:56:57;19.50;91.40
18101;DHT22;9177;49.156;8.142;2023-04-03T03:59:24;19.50;91.30
18101;DHT22;9177;49.156;8.142;2023-04-03T04:01:52;19.50;91.40
18101;DHT22;9177;49.156;8.142;2023-04-03T04:04:18;19.50;91.30
18101;DHT22;9177;49.156;8.142;2023-04-03T04:06:46;19.50;91.30
18101;DHT22;9177;49.156;8.142;2023-04-03T04:09:14;19.50;91.30
18101;DHT22;9177;49.156;8.142;2023-04-03T04:11:40;19.50;91.30
18101;DHT22;9177;49.156;8.142;2023-04-03T04:14:07;19.50;91.30
18101;DHT22;9177;49.156;8.142;2023-04-03T04:16:35;19.50;91.30
18101;DHT22;9177;49.156;8.142;2023-04-03T04:19:02;19.50;91.30
18101;DHT22;9177;49.156;8.142;2023-04-03T04:21:29;19.50;91.20
18101;DHT22;9177;49.156;8.142;2023-04-03T04:23:57;19.50;91.20
18101;DHT22;9177;49.156;8.142;2023-04-03T04:26:24;19.50;91.10
18101;DHT22;9177;49.156;8.142;2023-04-03T04:28:51;19.50;91.10
18101;DHT22;9177;49.156;8.142;2023-04-03T04:31:18;19.50;91.20
18101;DHT22;9177;49.156;8.142;2023-04-03T04:33:45;19.50;91.10
18101;DHT22;9177;49.156;8.142;2023-04-03T04:36:11;19.50;91.10
18101;DHT22;9177;49.156;8.142;2023-04-03T04:38:40;19.50;91.20
18101;DHT22;9177;49.156;8.142;2023-04-03T04:41:08;19.50;91.10
18101;DHT22;9177;49.156;8.142;2023-04-03T04:43:35;19.50;91.10
18101;DHT22;9177;49.156;8.142;2023-04-03T04:46:03;19.40;91.00
18101;DHT22;9177;49.156;8.142;2023-04-03T04:48:31;19.50;91.10
18101;DHT22;9177;49.156;8.142;2023-04-03T04:50:57;19.40;91.00
18101;DHT22;9177;49.156;8.142;2023-04-03T04:53:24;19.40;91.00
18101;DHT22;9177;49.156;8.142;2023-04-03T04:55:51;19.40;91.00
18101;DHT22;9177;49.156;8.142;2023-04-03T04:58:20;19.40;91.00
18101;DHT22;9177;49.156;8.142;2023-04-03T05:00:46;19.40;91.00
18101;DHT22;9177;49.156;8.142;2023-04-03T05:03:14;19.40;90.90
18101;DHT22;9177;49.156;8.142;2023-04-03T05:05:41;19.40;91.00
18101;DHT22;9177;49.156;8.142;2023-04-03T05:08:07;19.40;90.90
18101;DHT22;9177;49.156;8.142;2023-04-03T05:10:34;19.40;90.90
18101;DHT22;9177;49.156;8.142;2023-04-03T05:13:01;19.40;90.90
18101;DHT22;9177;49.156;8.142;2023-04-03T05:15:29;19.40;90.90
18101;DHT22;9177;49.156;8.142;2023-04-03T05:17:56;19.40;90.80
18101;DHT22;9177;49.156;8.142;2023-04-03T05:20:23;19.40;90.80
18101;DHT22;9177;49.156;8.142;2023-04-03T05:22:50;19.40;90.80
18101;DHT22;9177;49.156;8.142;2023-04-03T05:25:17;19.40;90.70
18101;DHT22;9177;49.156;8.142;2023-04-03T05:27:44;19.40;90.70
18101;DHT22;9177;49.156;8.142;2023-04-03T05:30:12;19.40;90.70
18101;DHT22;9177;49.156;8.142;2023-04-03T05:32:40;19.40;90.70
18101;DHT22;9177;49.156;8.142;2023-04-03T05:35:08;19.50;90.70
18101;DHT22;9177;49.156;8.142;2023-04-03T05:37:35;19.40;90.60
18101;DHT22;9177;49.156;8.142;2023-04-03T05:40:02;19.40;90.70
18101;DHT22;9177;49.156;8.142;2023-04-03T05:42:29;19.50;90.70
18101;DHT22;9177;49.156;8.142;2023-04-03T05:44:56;19.50;90.70
18101;DHT22;9177;49.156;8.142;2023-04-03T05:47:23;19.50;90.60
18101;DHT22;9177;49.156;8.142;2023-04-03T05:49:52;19.50;90.60
18101;DHT22;9177;49.156;8.142;2023-04-03T05:52:22;19.50;90.60
18101;DHT22;9177;49.156;8.142;2023-04-03T05:54:49;19.50;90.60
18101;DHT22;9177;49.156;8.142;2023-04-03T05:57:17;19.50;90.50
18101;DHT22;9177;49.156;8.142;2023-04-03T05:59:45;19.50;90.60
18101;DHT22;9177;49.156;8.142;2023-04-03T06:02:13;19.50;90.50
18101;DHT22;9177;49.156;8.142;2023-04-03T06:04:40;19.50;90.50
18101;DHT22;9177;49.156;8.142;2023-04-03T06:07:11;19.50;90.50
18101;DHT22;9177;49.156;8.142;2023-04-03T06:09:39;19.50;90.50
18101;DHT22;9177;49.156;8.142;2023-04-03T06:12:06;19.50;90.50
18101;DHT22;9177;49.156;8.142;2023-04-03T06:14:33;19.50;90.50
18101;DHT22;9177;49.156;8.142;2023-04-03T06:17:00;19.50;90.40
18101;DHT22;9177;49.156;8.142;2023-04-03T06:19:27;19.50;90.40
18101;DHT22;9177;49.156;8.142;2023-04-03T06:21:54;19.50;90.40
18101;DHT22;9177;49.156;8.142;2023-04-03T06:24:23;19.50;90.40
18101;DHT22;9177;49.156;8.142;2023-04-03T06:26:50;19.50;90.40
18101;DHT22;9177;49.156;8.142;2023-04-03T06:29:18;19.50;90.40
18101;DHT22;9177;49.156;8.142;2023-04-03T06:31:45;19.50;90.40
18101;DHT22;9177;49.156;8.142;2023-04-03T06:34:12;19.40;90.30
18101;DHT22;9177;49.156;8.142;2023-04-03T06:36:41;19.50;90.40
18101;DHT22;9177;49.156;8.142;2023-04-03T06:39:09;19.50;90.30
18101;DHT22;9177;49.156;8.142;2023-04-03T06:41:41;19.50;90.30
18101;DHT22;9177;49.156;8.142;2023-04-03T06:44:10;19.50;90.30
18101;DHT22;9177;49.156;8.142;2023-04-03T06:46:39;19.50;90.30
18101;DHT22;9177;49.156;8.142;2023-04-03T06:49:06;19.50;90.30
18101;DHT22;9177;49.156;8.142;2023-04-03T06:51:36;19.50;90.30
18101;DHT22;9177;49.156;8.142;2023-04-03T06:54:04;19.50;90.30
18101;DHT22;9177;49.156;8.142;2023-04-03T06:56:32;19.50;90.20
18101;DHT22;9177;49.156;8.142;2023-04-03T06:59:00;19.50;90.30
18101;DHT22;9177;49.156;8.142;2023-04-03T07:01:29;19.50;90.40
18101;DHT22;9177;49.156;8.142;2023-04-03T07:03:56;19.50;90.90
18101;DHT22;9177;49.156;8.142;2023-04-03T07:06:23;19.60;91.20
18101;DHT22;9177;49.156;8.142;2023-04-03T07:08:52;19.60;91.40
18101;DHT22;9177;49.156;8.142;2023-04-03T07:11:19;19.60;91.50
18101;DHT22;9177;49.156;8.142;2023-04-03T07:13:46;19.60;91.40
18101;DHT22;9177;49.156;8.142;2023-04-03T07:16:15;19.60;91.40
18101;DHT22;9177;49.156;8.142;2023-04-03T07:18:42;19.60;91.40
18101;DHT22;9177;49.156;8.142;2023-04-03T07:21:09;19.70;91.40
18101;DHT22;9177;49.156;8.142;2023-04-03T07:23:36;19.70;91.10
18101;DHT22;9177;49.156;8.142;2023-04-03T07:26:03;19.70;91.20
18101;DHT22;9177;49.156;8.142;2023-04-03T07:28:30;19.70;91.10
18101;DHT22;9177;49.156;8.142;2023-04-03T07:31:01;19.70;91.10
18101;DHT22;9177;49.156;8.142;2023-04-03T07:33:30;19.80;90.90
18101;DHT22;9177;49.156;8.142;2023-04-03T07:35:57;19.80;90.70
18101;DHT22;9177;49.156;8.142;2023-04-03T07:38:26;19.90;90.70
18101;DHT22;9177;49.156;8.142;2023-04-03T07:40:53;19.90;90.70
18101;DHT22;9177;49.156;8.142;2023-04-03T07:43:21;19.90;90.70
18101;DHT22;9177;49.156;8.142;2023-04-03T07:45:50;19.90;90.70
18101;DHT22;9177;49.156;8.142;2023-04-03T07:48:18;19.90;90.80
18101;DHT22;9177;49.156;8.142;2023-04-03T07:50:47;20.00;90.90
18101;DHT22;9177;49.156;8.142;2023-04-03T07:53:15;20.00;90.80
18101;DHT22;9177;49.156;8.142;2023-04-03T07:55:42;20.00;90.80
18101;DHT22;9177;49.156;8.142;2023-04-03T07:58:10;20.00;90.80
18101;DHT22;9177;49.156;8.142;2023-04-03T08:00:37;20.00;90.70
18101;DHT22;9177;49.156;8.142;2023-04-03T08:03:05;20.00;90.60
18101;DHT22;9177;49.156;8.142;2023-04-03T08:05:49;20.00;90.60
18101;DHT22;9177;49.156;8.142;2023-04-03T08:08:18;20.00;90.50
18101;DHT22;9177;49.156;8.142;2023-04-03T08:10:49;20.00;90.40
18101;DHT22;9177;49.156;8.142;2023-04-03T08:13:16;20.00;90.50
18101;DHT22;9177;49.156;8.142;2023-04-03T08:15:43;20.00;90.50
18101;DHT22;9177;49.156;8.142;2023-04-03T08:18:11;20.00;90.50
18101;DHT22;9177;49.156;8.142;2023-04-03T08:20:38;20.00;90.40
18101;DHT22;9177;49.156;8.142;2023-04-03T08:23:08;20.10;90.40
18101;DHT22;9177;49.156;8.142;2023-04-03T08:25:37;20.10;90.60
18101;DHT22;9177;49.156;8.142;2023-04-03T08:28:05;20.10;90.40
18101;DHT22;9177;49.156;8.142;2023-04-03T08:30:32;20.10;90.50
18101;DHT22;9177;49.156;8.142;2023-04-03T08:33:00;20.10;90.40
18101;DHT22;9177;49.156;8.142;2023-04-03T08:35:27;20.10;90.40
18101;DHT22;9177;49.156;8.142;2023-04-03T08:37:55;20.10;90.40
18101;DHT22;9177;49.156;8.142;2023-04-03T08:40:23;20.10;90.70
18101;DHT22;9177;49.156;8.142;2023-04-03T08:43:10;20.10;90.50
18101;DHT22;9177;49.156;8.142;2023-04-03T08:45:45;20.20;90.50
18101;DHT22;9177;49.156;8.142;2023-04-03T08:48:19;20.20;90.40
18101;DHT22;9177;49.156;8.142;2023-04-03T08:50:50;20.20;90.30
18101;DHT22;9177;49.156;8.142;2023-04-03T08:53:20;20.20;90.30
18101;DHT22;9177;49.156;8.142;2023-04-03T08:55:50;20.20;90.40
18101;DHT22;9177;49.156;8.142;2023-04-03T08:58:19;20.20;90.40
18101;DHT22;9177;49.156;8.142;2023-04-03T09:00:49;20.20;90.30
18101;DHT22;9177;49.156;8.142;2023-04-03T09:03:19;20.20;90.30
18101;DHT22;9177;49.156;8.142;2023-04-03T09:05:49;20.20;90.30
18101;DHT22;9177;49.156;8.142;2023-04-03T09:08:25;20.20;90.50
18101;DHT22;9177;49.156;8.142;2023-04-03T09:11:00;20.10;90.50
18101;DHT22;9177;49.156;8.142;2023-04-03T09:13:33;20.10;90.40
18101;DHT22;9177;49.156;8.142;2023-04-03T09:16:10;20.20;90.50
18101;DHT22;9177;49.156;8.142;2023-04-03T09:18:44;20.20;90.50
18101;DHT22;9177;49.156;8.142;2023-04-03T09:21:21;20.20;90.50
18101;DHT22;9177;49.156;8.142;2023-04-03T09:23:50;20.20;90.40
18101;DHT22;9177;49.156;8.142;2023-04-03T09:26:24;20.10;90.30
18101;DHT22;9177;49.156;8.142;2023-04-03T09:28:53;20.10;90.20
18101;DHT22;9177;49.156;8.142;2023-04-03T09:31:23;20.10;90.30
18101;DHT22;9177;49.156;8.142;2023-04-03T09:33:53;20.10;90.50
18101;DHT22;9177;49.156;8.142;2023-04-03T09:36:43;20.10;90.30
18101;DHT22;9177;49.156;8.142;2023-04-03T09:39:14;20.10;90.50
18101;DHT22;9177;49.156;8.142;2023-04-03T09:41:56;20.10;90.60
18101;DHT22;9177;49.156;8.142;2023-04-03T09:44:25;20.00;90.60
18101;DHT22;9177;49.156;8.142;2023-04-03T09:46:52;20.00;90.60
18101;DHT22;9177;49.156;8.142;2023-04-03T09:49:19;20.00;90.40
18101;DHT22;9177;49.156;8.142;2023-04-03T09:51:46;20.10;90.40
18101;DHT22;9177;49.156;8.142;2023-04-03T09:54:41;20.10;90.50
18101;DHT22;9177;49.156;8.142;2023-04-03T09:57:11;20.10;90.50
18101;DHT22;9177;49.156;8.142;2023-04-03T09:59:47;20.10;90.60
18101;DHT22;9177;49.156;8.142;2023-04-03T10:02:27;20.10;90.50
18101;DHT22;9177;49.156;8.142;2023-04-03T10:04:56;20.00;90.50
18101;DHT22;9177;49.156;8.142;2023-04-03T10:07:29;20.00;90.70
18101;DHT22;9177;49.156;8.142;2023-04-03T10:09:57;20.10;90.70
18101;DHT22;9177;49.156;8.142;2023-04-03T10:12:27;20.10;90.50
18101;DHT22;9177;49.156;8.142;2023-04-03T10:14:56;20.10;90.50
18101;DHT22;9177;49.156;8.142;2023-04-03T10:17:33;20.00;90.40
18101;DHT22;9177;49.156;8.142;2023-04-03T10:20:09;20.00;90.30
18101;DHT22;9177;49.156;8.142;2023-04-03T10:22:47;20.00;90.50
18101;DHT22;9177;49.156;8.142;2023-04-03T10:25:23;20.00;90.40
18101;DHT22;9177;49.156;8.142;2023-04-03T10:28:00;19.90;90.40
18101;DHT22;9177;49.156;8.142;2023-04-03T10:30:42;19.90;90.40
18101;DHT22;9177;49.156;8.142;2023-04-03T10:33:29;19.90;90.30
18101;DHT22;9177;49.156;8.142;2023-04-03T10:36:06;19.90;90.10
18101;DHT22;9177;49.156;8.142;2023-04-03T10:38:42;19.90;90.20
18101;DHT22;9177;49.156;8.142;2023-04-03T10:41:14;19.90;90.40
18101;DHT22;9177;49.156;8.142;2023-04-03T10:43:48;19.80;90.40
18101;DHT22;9177;49.156;8.142;2023-04-03T10:46:23;19.90;90.50
18101;DHT22;9177;49.156;8.142;2023-04-03T10:49:05;19.90;90.50
18101;DHT22;9177;49.156;8.142;2023-04-03T10:51:39;19.90;90.50
18101;DHT22;9177;49.156;8.142;2023-04-03T10:54:11;19.90;90.50
18101;DHT22;9177;49.156;8.142;2023-04-03T10:56:41;19.90;90.50
18101;DHT22;9177;49.156;8.142;2023-04-03T10:59:18;19.90;90.40
18101;DHT22;9177;49.156;8.142;2023-04-03T11:01:51;19.80;90.40
18101;DHT22;9177;49.156;8.142;2023-04-03T11:04:20;19.80;90.50
18101;DHT22;9177;49.156;8.142;2023-04-03T11:06:51;19.80;90.50
18101;DHT22;9177;49.156;8.142;2023-04-03T11:09:24;19.80;90.30
18101;DHT22;9177;49.156;8.142;2023-04-03T11:11:56;19.90;90.20
18101;DHT22;9177;49.156;8.142;2023-04-03T11:14:28;19.90;90.50
18101;DHT22;9177;49.156;8.142;2023-04-03T11:17:05;20.00;90.50
18101;DHT22;9177;49.156;8.142;2023-04-03T11:19:36;20.00;90.50
18101;DHT22;9177;49.156;8.142;2023-04-03T11:22:11;19.90;90.30
18101;DHT22;9177;49.156;8.142;2023-04-03T11:24:43;19.90;90.30
18101;DHT22;9177;49.156;8.142;2023-04-03T11:27:17;19.90;90.30
18101;DHT22;9177;49.156;8.142;2023-04-03T11:29:50;19.90;90.30
18101;DHT22;9177;49.156;8.142;2023-04-03T11:32:34;19.90;90.30
18101;DHT22;9177;49.156;8.142;2023-04-03T11:35:07;19.90;90.30
18101;DHT22;9177;49.156;8.142;2023-04-03T11:37:39;19.90;90.20
18101;DHT22;9177;49.156;8.142;2023-04-03T11:40:13;19.80;90.20
18101;DHT22;9177;49.156;8.142;2023-04-03T11:42:47;19.90;90.20
18101;DHT22;9177;49.156;8.142;2023-04-03T11:45:38;19.80;90.00
18101;DHT22;9177;49.156;8.142;2023-04-03T11:51:38;19.90;90.10
18101;DHT22;9177;49.156;8.142;2023-04-03T12:00:52;19.90;90.10
18101;DHT22;9177;49.156;8.142;2023-04-03T12:07:11;20.00;90.20
18101;DHT22;9177;49.156;8.142;2023-04-03T12:10:16;19.90;90.10
18101;DHT22;9177;49.156;8.142;2023-04-03T12:12:56;19.90;89.60
18101;DHT22;9177;49.156;8.142;2023-04-03T12:21:18;19.90;89.90
18101;DHT22;9177;49.156;8.142;2023-04-03T12:24:04;19.90;89.70
18101;DHT22;9177;49.156;8.142;2023-04-03T12:26:36;19.90;90.10
18101;DHT22;9177;49.156;8.142;2023-04-03T12:29:15;20.00;90.20
18101;DHT22;9177;49.156;8.142;2023-04-03T12:31:54;20.00;90.20
18101;DHT22;9177;49.156;8.142;2023-04-03T12:34:46;20.00;90.30
18101;DHT22;9177;49.156;8.142;2023-04-03T12:37:24;20.00;90.30
18101;DHT22;9177;49.156;8.142;2023-04-03T12:40:15;19.90;90.30
18101;DHT22;9177;49.156;8.142;2023-04-03T12:43:09;19.90;90.30
18101;DHT22;9177;49.156;8.142;2023-04-03T12:45:44;19.90;90.30
18101;DHT22;9177;49.156;8.142;2023-04-03T12:48:15;20.00;90.30
18101;DHT22;9177;49.156;8.142;2023-04-03T12:50:46;19.90;90.30
18101;DHT22;9177;49.156;8.142;2023-04-03T12:53:16;20.00;90.20
18101;DHT22;9177;49.156;8.142;2023-04-03T12:55:44;20.00;90.10
18101;DHT22;9177;49.156;8.142;2023-04-03T12:58:16;20.00;90.10
18101;DHT22;9177;49.156;8.142;2023-04-03T13:00:44;20.00;90.00
18101;DHT22;9177;49.156;8.142;2023-04-03T13:03:23;20.00;90.00
18101;DHT22;9177;49.156;8.142;2023-04-03T13:05:55;19.90;90.00
18101;DHT22;9177;49.156;8.142;2023-04-03T13:08:24;20.00;90.00
18101;DHT22;9177;49.156;8.142;2023-04-03T13:10:55;20.00;89.90
18101;DHT22;9177;49.156;8.142;2023-04-03T13:13:22;19.90;90.00
18101;DHT22;9177;49.156;8.142;2023-04-03T13:15:49;19.90;89.50
18101;DHT22;9177;49.156;8.142;2023-04-03T13:18:26;19.90;89.10
18101;DHT22;9177;49.156;8.142;2023-04-03T13:20:58;19.90;89.10
18101;DHT22;9177;49.156;8.142;2023-04-03T13:23:27;19.90;89.10
18101;DHT22;9177;49.156;8.142;2023-04-03T13:25:55;19.90;88.90
18101;DHT22;9177;49.156;8.142;2023-04-03T13:28:27;19.90;89.10
18101;DHT22;9177;49.156;8.142;2023-04-03T13:30:59;19.90;89.10
18101;DHT22;9177;49.156;8.142;2023-04-03T13:33:31;19.90;89.30
18101;DHT22;9177;49.156;8.142;2023-04-03T13:36:04;20.00;88.90
18101;DHT22;9177;49.156;8.142;2023-04-03T13:38:32;20.00;89.30
18101;DHT22;9177;49.156;8.142;2023-04-03T13:41:01;20.00;89.10
18101;DHT22;9177;49.156;8.142;2023-04-03T13:43:31;20.00;88.80
18101;DHT22;9177;49.156;8.142;2023-04-03T13:48:48;19.90;88.80
18101;DHT22;9177;49.156;8.142;2023-04-03T13:51:22;19.90;88.90
18101;DHT22;9177;49.156;8.142;2023-04-03T13:53:52;19.90;88.80
18101;DHT22;9177;49.156;8.142;2023-04-03T13:56:26;19.90;88.20
18101;DHT22;9177;49.156;8.142;2023-04-03T13:59:04;19.90;88.90
18101;DHT22;9177;49.156;8.142;2023-04-03T14:01:43;19.90;88.60
18101;DHT22;9177;49.156;8.142;2023-04-03T14:04:16;19.90;88.90
18101;DHT22;9177;49.156;8.142;2023-04-03T14:06:47;20.00;89.10
18101;DHT22;9177;49.156;8.142;2023-04-03T14:09:15;20.00;88.20
18101;DHT22;9177;49.156;8.142;2023-04-03T14:11:43;20.20;88.80
18101;DHT22;9177;49.156;8.142;2023-04-03T14:14:14;20.30;88.10
18101;DHT22;9177;49.156;8.142;2023-04-03T14:16:44;20.40;86.60
18101;DHT22;9177;49.156;8.142;2023-04-03T14:19:18;20.40;86.40
18101;DHT22;9177;49.156;8.142;2023-04-03T14:21:47;20.40;86.40
18101;DHT22;9177;49.156;8.142;2023-04-03T14:24:16;20.40;86.50
18101;DHT22;9177;49.156;8.142;2023-04-03T14:26:43;20.50;86.70
18101;DHT22;9177;49.156;8.142;2023-04-03T14:29:12;20.60;86.50
18101;DHT22;9177;49.156;8.142;2023-04-03T14:31:39;20.80;86.00
18101;DHT22;9177;49.156;8.142;2023-04-03T14:34:06;21.00;85.20
18101;DHT22;9177;49.156;8.142;2023-04-03T14:36:33;21.00;85.10
18101;DHT22;9177;49.156;8.142;2023-04-03T14:39:03;21.10;85.30
18101;DHT22;9177;49.156;8.142;2023-04-03T14:41:31;21.20;85.20
18101;DHT22;9177;49.156;8.142;2023-04-03T14:43:57;21.30;85.20
18101;DHT22;9177;49.156;8.142;2023-04-03T14:46:28;21.30;85.40
18101;DHT22;9177;49.156;8.142;2023-04-03T14:48:56;21.20;85.30
18101;DHT22;9177;49.156;8.142;2023-04-03T14:51:23;21.00;85.40
18101;DHT22;9177;49.156;8.142;2023-04-03T14:53:50;21.00;85.20
18101;DHT22;9177;49.156;8.142;2023-04-03T14:56:21;21.10;84.70
18101;DHT22;9177;49.156;8.142;2023-04-03T14:58:49;21.30;83.40
18101;DHT22;9177;49.156;8.142;2023-04-03T15:01:20;21.30;83.30
18101;DHT22;9177;49.156;8.142;2023-04-03T15:03:47;21.10;83.20
18101;DHT22;9177;49.156;8.142;2023-04-03T15:06:15;21.00;83.00
18101;DHT22;9177;49.156;8.142;2023-04-03T15:08:42;21.00;82.90
18101;DHT22;9177;49.156;8.142;2023-04-03T15:11:10;20.90;82.20
18101;DHT22;9177;49.156;8.142;2023-04-03T15:13:39;21.00;81.70
18101;DHT22;9177;49.156;8.142;2023-04-03T15:16:14;20.90;81.30
18101;DHT22;9177;49.156;8.142;2023-04-03T15:18:41;20.80;81.70
18101;DHT22;9177;49.156;8.142;2023-04-03T15:21:08;20.70;81.20
18101;DHT22;9177;49.156;8.142;2023-04-03T15:23:35;20.60;81.80
18101;DHT22;9177;49.156;8.142;2023-04-03T15:26:03;20.70;82.20
18101;DHT22;9177;49.156;8.142;2023-04-03T15:28:34;20.70;81.70
18101;DHT22;9177;49.156;8.142;2023-04-03T15:31:03;20.90;81.10
18101;DHT22;9177;49.156;8.142;2023-04-03T15:33:30;21.00;80.60
18101;DHT22;9177;49.156;8.142;2023-04-03T15:35:58;21.10;80.30
18101;DHT22;9177;49.156;8.142;2023-04-03T15:38:24;21.10;79.60
18101;DHT22;9177;49.156;8.142;2023-04-03T15:40:51;21.20;79.20
18101;DHT22;9177;49.156;8.142;2023-04-03T15:43:19;21.20;78.90
18101;DHT22;9177;49.156;8.142;2023-04-03T15:45:47;21.20;78.80
18101;DHT22;9177;49.156;8.142;2023-04-03T15:48:22;21.10;78.80
18101;DHT22;9177;49.156;8.142;2023-04-03T15:50:49;21.00;78.80
18101;DHT22;9177;49.156;8.142;2023-04-03T15:53:16;20.90;78.90
18101;DHT22;9177;49.156;8.142;2023-04-03T15:55:43;20.90;78.70
18101;DHT22;9177;49.156;8.142;2023-04-03T15:58:10;21.00;78.30
18101;DHT22;9177;49.156;8.142;2023-04-03T16:00:37;21.10;77.90
18101;DHT22;9177;49.156;8.142;2023-04-03T16:03:08;21.20;77.60
18101;DHT22;9177;49.156;8.142;2023-04-03T16:05:38;21.30;77.40
18101;DHT22;9177;49.156;8.142;2023-04-03T16:08:06;21.30;77.00
18101;DHT22;9177;49.156;8.142;2023-04-03T16:10:33;21.30;76.70
18101;DHT22;9177;49.156;8.142;2023-04-03T16:13:01;21.30;76.40
18101;DHT22;9177;49.156;8.142;2023-04-03T16:15:28;21.30;76.50
18101;DHT22;9177;49.156;8.142;2023-04-03T16:17:57;21.30;76.30
18101;DHT22;9177;49.156;8.142;2023-04-03T16:20:25;21.30;75.80
18101;DHT22;9177;49.156;8.142;2023-04-03T16:22:53;21.30;75.70
18101;DHT22;9177;49.156;8.142;2023-04-03T16:25:22;21.30;75.50